Time;durP1;ratioP1;P1;durP2;ratioP2;P2;SDS_P1;SDS_P2;PMS_P1;PMS_P2;Temp;Humidity;BMP_temperature;BMP_pressure;BME280_temperature;BME280_humidity;BME280_pressure;Samples;Min_cycle;Max_cycle;Signal;HPM_P1;HPM_P2
2021/04/25 00:00:00;;;;;;;2.53;2.00;;;14.10;96.30;;;;;;4984342;28;20042;-66
2021/04/25 00:02:26;;;;;;;1.67;1.58;;;14.20;96.40;;;;;;4971033;28;20057;-66
2021/04/25 00:04:52;;;;;;;3.25;2.10;;;14.30;96.30;;;;;;4979880;28;20074;-67
2021/04/25 00:07:18;;;;;;;1.75;1.65;;;13.80;97.30;;;;;;4973266;28;20019;-66
2021/04/25 00:09:43;;;;;;;2.28;1.80;;;14.00;97.80;;;;;;4978070;28;20037;-67
2021/04/25 00:12:09;;;;;;;3.00;1.73;;;13.80;98.00;;;;;;4977442;28;20018;-66
2021/04/25 00:14:35;;;;;;;2.95;1.80;;;14.00;98.30;;;;;;4978229;28;20043;-66
2021/04/25 00:17:01;;;;;;;1.95;1.85;;;13.70;98.80;;;;;;4977968;28;20051;-66
2021/04/25 00:19:27;;;;;;;2.35;1.95;;;13.90;98.60;;;;;;4976421;28;20117;-66
2021/04/25 00:21:52;;;;;;;3.15;2.22;;;13.90;98.90;;;;;;4979026;28;20047;-66
2021/04/25 00:24:18;;;;;;;3.17;1.85;;;13.80;99.30;;;;;;4976454;28;20093;-66
2021/04/25 00:26:44;;;;;;;1.90;1.80;;;13.90;99.30;;;;;;4974277;28;20102;-66
2021/04/25 00:29:09;;;;;;;2.50;2.30;;;13.70;99.70;;;;;;4976385;28;20039;-66
2021/04/25 00:31:35;;;;;;;3.00;1.90;;;13.60;99.90;;;;;;4983165;28;20031;-65
2021/04/25 00:34:01;;;;;;;2.78;1.83;;;13.80;99.90;;;;;;4976096;28;20027;-66
2021/04/25 00:36:26;;;;;;;2.13;1.90;;;13.70;99.90;;;;;;4970438;28;20165;-66
2021/04/25 00:38:54;;;;;;;2.47;2.28;;;13.80;99.90;;;;;;4976125;28;20066;-66
2021/04/25 00:41:20;;;;;;;1.85;1.75;;;13.80;99.90;;;;;;4978395;28;20030;-66
2021/04/25 00:43:46;;;;;;;2.33;1.90;;;13.60;99.90;;;;;;4976008;28;20260;-66
2021/04/25 00:46:12;;;;;;;1.88;1.77;;;13.60;99.90;;;;;;4979157;28;20111;-66
2021/04/25 00:48:38;;;;;;;1.98;1.88;;;13.60;99.90;;;;;;4976071;28;20113;-66
2021/04/25 00:51:07;;;;;;;3.35;1.98;;;13.80;99.90;;;;;;4979558;28;20030;-67
2021/04/25 00:53:33;;;;;;;4.40;1.88;;;13.60;99.90;;;;;;4975987;28;20018;-65
2021/04/25 00:55:59;;;;;;;3.90;2.30;;;13.60;99.90;;;;;;4980417;28;20026;-66
2021/04/25 00:58:25;;;;;;;2.15;1.95;;;13.50;99.90;;;;;;4973330;28;20031;-66
2021/04/25 01:00:50;;;;;;;2.85;2.03;;;13.60;99.90;;;;;;4975402;28;20085;-66
2021/04/25 01:03:22;;;;;;;2.95;2.20;;;13.70;99.90;;;;;;4974375;28;20034;-65
2021/04/25 01:05:49;;;;;;;2.30;2.10;;;13.60;99.90;;;;;;4970730;28;20126;-65
2021/04/25 01:08:15;;;;;;;3.40;2.00;;;13.60;99.90;;;;;;4961828;28;20027;-66
2021/04/25 01:10:41;;;;;;;2.90;2.20;;;13.50;99.90;;;;;;4980859;28;20565;-66
2021/04/25 01:13:07;;;;;;;3.80;2.10;;;13.50;99.90;;;;;;4973273;28;20030;-66
2021/04/25 01:15:32;;;;;;;2.28;2.08;;;13.50;99.90;;;;;;4981429;28;20026;-66
2021/04/25 01:17:58;;;;;;;2.83;2.17;;;13.50;99.90;;;;;;4973188;28;20045;-66
2021/04/25 01:20:24;;;;;;;2.65;2.25;;;13.60;99.90;;;;;;4981986;28;20030;-66
2021/04/25 01:22:50;;;;;;;2.22;2.03;;;13.50;99.90;;;;;;4973880;28;20057;-66
2021/04/25 01:25:20;;;;;;;2.35;2.15;;;13.50;99.90;;;;;;4980924;28;20034;-66
2021/04/25 01:27:46;;;;;;;3.47;2.40;;;13.50;99.90;;;;;;4976321;28;20050;-66
2021/04/25 01:30:14;;;;;;;2.20;2.10;;;13.50;99.90;;;;;;4983763;28;20537;-66
2021/04/25 01:32:42;;;;;;;2.28;2.13;;;13.40;99.90;;;;;;4976910;28;20045;-66
2021/04/25 01:35:09;;;;;;;2.83;2.25;;;13.40;99.90;;;;;;4979666;28;20026;-66
2021/04/25 01:37:35;;;;;;;4.97;2.35;;;13.40;99.90;;;;;;4977004;28;20665;-67
2021/04/25 01:40:03;;;;;;;2.67;2.13;;;13.30;99.90;;;;;;4976292;28;20031;-66
2021/04/25 01:42:28;;;;;;;2.53;2.33;;;13.40;99.90;;;;;;4970425;28;20033;-66
2021/04/25 01:44:54;;;;;;;2.90;2.70;;;13.30;99.90;;;;;;4969365;28;20249;-66
2021/04/25 01:47:20;;;;;;;3.95;2.83;;;13.30;99.90;;;;;;4969677;28;20097;-66
2021/04/25 01:49:45;;;;;;;3.75;2.60;;;13.30;99.90;;;;;;4983031;28;20042;-66
2021/04/25 01:52:11;;;;;;;3.58;2.42;;;13.30;99.90;;;;;;4969376;28;20054;-65
2021/04/25 01:54:37;;;;;;;4.40;2.65;;;13.40;99.90;;;;;;4980298;28;20026;-66
2021/04/25 01:57:02;;;;;;;2.80;2.60;;;13.20;99.90;;;;;;4981757;28;20101;-67
2021/04/25 01:59:28;;;;;;;3.10;2.53;;;13.20;99.90;;;;;;4975260;28;20038;-67
2021/04/25 02:01:54;;;;;;;2.78;2.58;;;13.20;99.90;;;;;;4970011;28;20014;-66
2021/04/25 02:04:20;;;;;;;4.68;2.90;;;13.20;99.90;;;;;;4974991;28;20046;-66
2021/04/25 02:06:46;;;;;;;2.67;2.47;;;13.30;99.90;;;;;;4970471;28;20046;-66
2021/04/25 02:09:12;;;;;;;4.45;2.40;;;13.20;99.90;;;;;;4977277;28;20057;-67
2021/04/25 02:11:38;;;;;;;4.05;2.78;;;13.30;99.90;;;;;;4972737;28;20019;-66
2021/04/25 02:14:07;;;;;;;5.28;2.65;;;13.30;99.90;;;;;;4976890;28;20035;-67
2021/04/25 02:16:33;;;;;;;2.97;2.67;;;13.20;99.90;;;;;;4973096;28;20027;-68
2021/04/25 02:18:59;;;;;;;2.63;2.40;;;13.40;99.90;;;;;;4976346;28;20042;-67
2021/04/25 02:21:25;;;;;;;4.38;2.97;;;13.30;99.90;;;;;;4973363;28;20054;-68
2021/04/25 02:23:51;;;;;;;4.90;3.38;;;13.30;99.90;;;;;;4977052;28;20644;-65
2021/04/25 02:26:17;;;;;;;4.45;3.20;;;13.40;99.90;;;;;;4975329;28;20034;-69
2021/04/25 02:28:43;;;;;;;3.72;2.83;;;13.00;99.90;;;;;;4977136;28;20387;-68
2021/04/25 02:31:08;;;;;;;3.40;3.10;;;13.30;99.90;;;;;;4976533;28;20027;-68
2021/04/25 02:33:34;;;;;;;3.30;3.00;;;13.20;99.90;;;;;;4978317;28;20105;-66
2021/04/25 02:36:00;;;;;;;3.97;2.95;;;13.30;99.90;;;;;;4978587;28;20073;-66
2021/04/25 02:38:25;;;;;;;3.47;3.17;;;13.20;99.90;;;;;;4978199;28;20030;-66
2021/04/25 02:40:51;;;;;;;3.67;3.20;;;13.10;99.90;;;;;;4980218;28;20046;-66
2021/04/25 02:43:17;;;;;;;3.88;3.17;;;13.30;99.90;;;;;;4973110;28;20027;-66
2021/04/25 02:45:43;;;;;;;4.15;3.53;;;13.20;99.90;;;;;;4973123;28;20035;-66
2021/04/25 02:48:09;;;;;;;4.82;3.03;;;13.20;99.90;;;;;;4974077;28;20444;-66
2021/04/25 02:50:41;;;;;;;3.50;3.22;;;13.30;99.90;;;;;;4981458;28;20031;-66
2021/04/25 02:53:08;;;;;;;3.42;3.20;;;13.30;99.90;;;;;;4974980;28;20023;-65
2021/04/25 02:55:34;;;;;;;3.47;2.92;;;13.30;99.90;;;;;;4987785;28;20022;-66
2021/04/25 02:58:00;;;;;;;3.35;3.10;;;13.10;99.90;;;;;;4977697;28;20037;-67
2021/04/25 03:00:28;;;;;;;4.10;3.40;;;13.10;99.90;;;;;;4976331;28;20018;-66
2021/04/25 03:02:54;;;;;;;4.95;3.30;;;13.10;99.90;;;;;;4973308;28;20027;-66
2021/04/25 03:05:21;;;;;;;6.07;4.00;;;13.30;99.90;;;;;;4983416;28;20431;-66
2021/04/25 03:07:47;;;;;;;4.57;3.60;;;13.20;99.90;;;;;;4980082;28;20027;-67
2021/04/25 03:10:15;;;;;;;3.88;3.58;;;13.30;99.90;;;;;;4977479;28;20049;-66
2021/04/25 03:12:41;;;;;;;5.68;3.88;;;13.10;99.90;;;;;;4973814;28;20391;-66
2021/04/25 03:15:09;;;;;;;5.10;3.90;;;13.10;99.90;;;;;;4981938;28;20657;-66
2021/04/25 03:17:36;;;;;;;4.72;3.65;;;13.20;99.90;;;;;;4971054;28;20018;-66
2021/04/25 03:20:04;;;;;;;5.43;4.20;;;13.20;99.90;;;;;;4982774;28;20018;-66
2021/04/25 03:22:29;;;;;;;4.88;3.47;;;13.10;99.90;;;;;;4973469;28;20133;-66
2021/04/25 03:24:55;;;;;;;4.30;3.72;;;13.10;99.90;;;;;;4974712;28;20122;-66
2021/04/25 03:27:21;;;;;;;4.85;4.45;;;13.10;99.90;;;;;;4968068;28;20054;-66
2021/04/25 03:29:46;;;;;;;6.22;3.80;;;13.00;99.90;;;;;;4979063;28;20022;-66
2021/04/25 03:32:12;;;;;;;7.47;4.20;;;13.00;99.90;;;;;;4978550;28;20031;-67
2021/04/25 03:34:38;;;;;;;4.28;3.97;;;13.00;99.90;;;;;;4976570;28;20035;-66
2021/04/25 03:37:04;;;;;;;5.88;4.57;;;13.20;99.90;;;;;;4968668;28;20027;-66
2021/04/25 03:39:30;;;;;;;4.78;4.47;;;13.10;99.90;;;;;;4974755;28;20023;-66
2021/04/25 03:41:55;;;;;;;6.47;4.30;;;12.90;99.90;;;;;;4981552;28;20035;-66
2021/04/25 03:44:21;;;;;;;5.82;4.68;;;13.00;99.90;;;;;;4989242;28;20042;-66
2021/04/25 03:46:47;;;;;;;4.88;4.38;;;12.90;99.90;;;;;;4982795;28;20066;-65
2021/04/25 03:49:19;;;;;;;6.50;4.68;;;13.10;99.90;;;;;;4980238;28;20561;-65
2021/04/25 03:51:45;;;;;;;6.90;5.20;;;13.00;99.90;;;;;;4971869;28;20125;-66
2021/04/25 03:54:11;;;;;;;4.80;4.20;;;13.00;99.90;;;;;;4975524;28;20503;-66
2021/04/25 03:56:37;;;;;;;5.60;4.80;;;13.00;99.90;;;;;;4984384;28;20077;-66
2021/04/25 03:59:02;;;;;;;5.25;4.90;;;13.00;99.90;;;;;;4976715;28;20023;-66
2021/04/25 04:01:28;;;;;;;5.47;4.97;;;12.90;99.90;;;;;;4970738;28;20086;-66
2021/04/25 04:03:54;;;;;;;5.30;4.78;;;12.90;99.90;;;;;;4973856;28;20027;-66
2021/04/25 04:06:19;;;;;;;5.80;5.30;;;13.00;99.90;;;;;;4972026;28;20045;-66
2021/04/25 04:08:45;;;;;;;5.15;4.75;;;12.80;99.90;;;;;;4976502;28;20018;-66
2021/04/25 04:11:11;;;;;;;5.57;5.07;;;12.80;99.90;;;;;;4971426;28;20042;-66
2021/04/25 04:13:36;;;;;;;5.82;5.32;;;13.00;99.90;;;;;;4976843;28;20049;-66
2021/04/25 04:16:02;;;;;;;5.53;5.13;;;12.80;99.90;;;;;;4983333;28;20112;-66
2021/04/25 04:18:28;;;;;;;6.50;5.82;;;12.70;99.90;;;;;;4973241;28;20015;-66
2021/04/25 04:20:53;;;;;;;5.47;5.07;;;12.80;99.90;;;;;;4979288;28;20035;-66
2021/04/25 04:23:20;;;;;;;5.70;5.20;;;13.00;99.90;;;;;;4972603;28;20042;-66
2021/04/25 04:25:46;;;;;;;5.30;4.95;;;12.90;99.90;;;;;;4979797;28;20027;-66
2021/04/25 04:28:11;;;;;;;6.53;4.70;;;12.90;99.90;;;;;;4973769;28;20097;-66
2021/04/25 04:30:37;;;;;;;5.38;4.53;;;12.90;99.90;;;;;;4979818;28;20041;-67
2021/04/25 04:33:03;;;;;;;5.95;5.43;;;12.90;99.90;;;;;;4972088;28;20030;-66
2021/04/25 04:35:28;;;;;;;5.18;4.78;;;12.70;99.90;;;;;;4973887;28;20042;-66
2021/04/25 04:37:54;;;;;;;7.10;5.13;;;12.70;99.90;;;;;;4958688;28;20031;-66
2021/04/25 04:40:21;;;;;;;11.30;5.10;;;12.70;99.90;;;;;;4969990;28;20027;-66
2021/04/25 04:42:46;;;;;;;5.78;5.35;;;12.90;99.90;;;;;;4972081;28;20499;-66
2021/04/25 04:45:13;;;;;;;6.03;5.38;;;12.80;99.90;;;;;;4980002;28;20074;-66
2021/04/25 04:47:44;;;;;;;6.07;5.47;;;12.60;99.90;;;;;;4971263;28;20034;-66
2021/04/25 04:50:10;;;;;;;5.85;5.35;;;12.70;99.90;;;;;;4972759;28;20425;-66
2021/04/25 04:52:36;;;;;;;5.72;5.22;;;12.70;99.90;;;;;;4970375;28;20054;-66
2021/04/25 04:55:03;;;;;;;5.68;5.18;;;12.70;99.90;;;;;;4982009;28;20109;-65
2021/04/25 04:57:28;;;;;;;5.93;5.50;;;12.80;99.90;;;;;;4970825;28;20078;-65
2021/04/25 04:59:54;;;;;;;5.90;5.38;;;12.70;99.90;;;;;;4982358;28;20035;-65
2021/04/25 05:02:20;;;;;;;6.57;5.32;;;12.80;99.90;;;;;;4970608;28;20022;-65
2021/04/25 05:04:45;;;;;;;5.68;5.28;;;12.90;99.90;;;;;;4968595;28;20035;-66
2021/04/25 05:07:11;;;;;;;5.45;4.85;;;12.80;99.90;;;;;;4961394;28;20419;-66
2021/04/25 05:09:37;;;;;;;6.22;5.63;;;12.80;99.90;;;;;;4958245;28;20088;-65
2021/04/25 05:12:04;;;;;;;6.25;5.75;;;12.90;99.90;;;;;;4969086;28;20349;-65
2021/04/25 05:14:29;;;;;;;5.93;5.43;;;12.70;99.90;;;;;;4974696;28;20085;-66
2021/04/25 05:16:55;;;;;;;8.25;5.30;;;12.80;99.90;;;;;;4971947;28;20432;-66
2021/04/25 05:19:21;;;;;;;5.78;5.05;;;12.80;99.90;;;;;;4979223;28;20275;-66
2021/04/25 05:21:46;;;;;;;5.95;4.97;;;12.90;99.90;;;;;;4958709;28;20093;-67
2021/04/25 05:24:12;;;;;;;5.45;5.05;;;13.10;99.90;;;;;;4957952;28;20043;-66
2021/04/25 05:26:38;;;;;;;5.80;4.88;;;13.10;99.90;;;;;;4953956;28;20031;-67
2021/04/25 05:29:04;;;;;;;5.45;4.75;;;13.00;99.90;;;;;;4959664;28;20031;-67
2021/04/25 05:31:30;;;;;;;5.80;5.40;;;13.10;99.90;;;;;;4958348;28;20031;-66
2021/04/25 05:33:56;;;;;;;6.05;5.55;;;13.10;99.90;;;;;;4958710;28;20143;-66
2021/04/25 05:36:22;;;;;;;7.55;4.72;;;13.00;99.90;;;;;;4952425;28;20106;-67
2021/04/25 05:38:47;;;;;;;5.40;4.95;;;13.20;99.90;;;;;;4964897;28;20020;-67
2021/04/25 05:41:13;;;;;;;5.72;5.32;;;13.20;99.90;;;;;;4965731;28;20031;-66
2021/04/25 05:43:38;;;;;;;7.75;4.82;;;13.30;99.90;;;;;;4962128;28;20027;-67
2021/04/25 05:46:04;;;;;;;5.07;4.65;;;13.40;99.90;;;;;;4963980;28;20105;-67
2021/04/25 05:48:30;;;;;;;5.70;5.20;;;13.50;99.90;;;;;;4956045;28;20114;-66
2021/04/25 05:50:55;;;;;;;5.70;5.20;;;13.40;99.90;;;;;;4959484;28;20027;-67
2021/04/25 05:53:21;;;;;;;5.40;4.90;;;13.30;99.90;;;;;;4958382;28;20044;-67
2021/04/25 05:55:47;;;;;;;5.38;4.97;;;13.20;99.90;;;;;;4959282;28;20462;-66
2021/04/25 05:58:12;;;;;;;5.30;5.00;;;13.20;99.90;;;;;;4958099;28;20098;-65
2021/04/25 06:00:39;;;;;;;8.77;5.03;;;13.20;99.90;;;;;;4967736;28;20023;-67
2021/04/25 06:03:06;;;;;;;7.25;5.03;;;13.40;99.90;;;;;;4962363;28;20037;-66
2021/04/25 06:05:32;;;;;;;5.60;4.97;;;13.30;99.90;;;;;;4954001;28;20035;-66
2021/04/25 06:07:58;;;;;;;5.60;5.07;;;13.40;99.90;;;;;;4959212;28;20037;-67
2021/04/25 06:10:24;;;;;;;5.25;4.78;;;13.50;99.90;;;;;;4965240;28;20663;-66
2021/04/25 06:12:51;;;;;;;5.43;5.00;;;13.60;99.90;;;;;;4968855;28;20029;-66
2021/04/25 06:15:19;;;;;;;5.53;5.00;;;13.50;99.90;;;;;;4966197;28;20026;-66
2021/04/25 06:17:45;;;;;;;8.98;5.40;;;13.30;99.90;;;;;;4969021;28;20069;-67
2021/04/25 06:20:14;;;;;;;5.88;5.38;;;13.60;99.90;;;;;;4962883;28;20384;-66
2021/04/25 06:22:40;;;;;;;5.63;5.22;;;13.50;99.90;;;;;;4971563;28;20141;-66
2021/04/25 06:25:08;;;;;;;5.72;5.18;;;13.50;99.90;;;;;;4960474;28;20061;-67
2021/04/25 06:27:33;;;;;;;5.88;5.40;;;13.50;99.90;;;;;;4960433;28;20384;-66
2021/04/25 06:29:59;;;;;;;5.32;4.82;;;13.50;99.90;;;;;;4971695;28;20026;-66
2021/04/25 06:32:25;;;;;;;5.70;5.15;;;13.70;99.90;;;;;;4955699;28;20230;-66
2021/04/25 06:34:51;;;;;;;6.05;5.50;;;13.60;99.90;;;;;;4970135;28;20073;-66
2021/04/25 06:37:17;;;;;;;5.72;5.13;;;13.70;99.90;;;;;;4962050;28;20078;-66
2021/04/25 06:39:42;;;;;;;5.28;4.88;;;13.80;99.90;;;;;;4969015;28;20031;-67
2021/04/25 06:42:08;;;;;;;5.10;4.60;;;13.80;99.90;;;;;;4965818;28;20019;-66
2021/04/25 06:44:34;;;;;;;5.63;5.03;;;13.80;99.90;;;;;;4968180;28;20039;-66
2021/04/25 06:46:59;;;;;;;5.30;4.80;;;13.90;99.90;;;;;;4975916;28;20023;-66
2021/04/25 06:49:27;;;;;;;6.40;4.60;;;13.90;99.90;;;;;;4978072;28;20088;-66
2021/04/25 06:51:53;;;;;;;5.60;5.20;;;13.80;99.90;;;;;;4981548;28;20027;-66
2021/04/25 06:54:19;;;;;;;8.00;4.90;;;13.90;99.90;;;;;;4978068;28;20026;-65
2021/04/25 06:56:44;;;;;;;5.45;4.90;;;13.90;99.90;;;;;;4983337;28;20502;-66
2021/04/25 06:59:10;;;;;;;5.00;4.60;;;13.90;99.90;;;;;;4978083;28;20535;-67
2021/04/25 07:01:36;;;;;;;6.70;4.68;;;14.00;99.90;;;;;;4963778;28;20446;-66
2021/04/25 07:04:02;;;;;;;6.72;4.35;;;13.90;99.90;;;;;;4978072;28;20550;-67
2021/04/25 07:06:28;;;;;;;5.00;4.60;;;13.90;99.90;;;;;;4978102;28;20047;-66
2021/04/25 07:08:53;;;;;;;4.85;4.43;;;13.80;99.90;;;;;;4967382;28;20084;-67
2021/04/25 07:11:19;;;;;;;5.35;4.88;;;14.10;99.90;;;;;;4981626;28;20029;-66
2021/04/25 07:13:45;;;;;;;5.32;4.93;;;14.10;99.90;;;;;;4965582;28;20049;-66
2021/04/25 07:16:11;;;;;;;7.88;5.13;;;14.10;99.90;;;;;;4972706;28;20440;-67
2021/04/25 07:18:36;;;;;;;5.90;4.97;;;14.00;99.90;;;;;;4974573;28;20027;-67
2021/04/25 07:21:02;;;;;;;5.22;4.65;;;14.10;99.90;;;;;;4979349;28;20034;-66
2021/04/25 07:23:28;;;;;;;5.57;5.10;;;14.00;99.90;;;;;;4976727;28;20498;-67
2021/04/25 07:25:57;;;;;;;5.10;4.60;;;14.00;99.90;;;;;;4981604;28;20058;-66
2021/04/25 07:28:26;;;;;;;5.55;4.80;;;14.20;99.90;;;;;;4976493;28;20521;-66
2021/04/25 07:30:53;;;;;;;5.88;4.47;;;14.10;99.90;;;;;;4972989;28;20503;-67
2021/04/25 07:33:21;;;;;;;7.80;4.80;;;14.10;99.90;;;;;;4973532;28;20031;-66
2021/04/25 07:35:47;;;;;;;4.75;4.32;;;14.20;99.90;;;;;;4972852;28;20592;-66
2021/04/25 07:38:13;;;;;;;4.45;4.18;;;14.10;99.90;;;;;;4971460;28;20607;-66
2021/04/25 07:40:39;;;;;;;6.40;4.78;;;14.20;99.90;;;;;;4972934;28;20114;-66
2021/04/25 07:43:06;;;;;;;5.10;4.15;;;14.40;99.90;;;;;;4969005;28;20106;-66
2021/04/25 07:45:32;;;;;;;6.25;4.55;;;14.40;99.90;;;;;;4972881;28;20510;-66
2021/04/25 07:47:57;;;;;;;7.68;4.85;;;14.40;99.90;;;;;;4968031;28;20233;-66
2021/04/25 07:50:23;;;;;;;9.60;4.63;;;14.50;99.90;;;;;;4975927;28;20046;-67
2021/04/25 07:52:50;;;;;;;7.70;4.30;;;14.30;99.90;;;;;;4969696;28;20042;-66
2021/04/25 07:55:17;;;;;;;4.68;4.38;;;14.50;99.90;;;;;;4979666;28;20062;-67
2021/04/25 07:57:42;;;;;;;4.88;4.18;;;14.50;99.90;;;;;;4971003;28;20034;-67
2021/04/25 08:00:11;;;;;;;4.45;4.15;;;14.50;99.90;;;;;;4962287;28;20403;-67
2021/04/25 08:02:37;;;;;;;4.40;4.00;;;14.50;99.90;;;;;;4965748;28;20070;-67
2021/04/25 08:05:04;;;;;;;4.78;4.30;;;14.60;99.90;;;;;;4960204;28;20058;-67
2021/04/25 08:07:30;;;;;;;7.05;4.70;;;14.70;99.90;;;;;;4951326;28;20510;-67
2021/04/25 08:09:55;;;;;;;5.30;4.80;;;14.60;99.90;;;;;;4968138;28;20027;-66
2021/04/25 08:12:21;;;;;;;5.00;4.40;;;14.50;99.90;;;;;;4952630;28;20114;-67
2021/04/25 08:14:47;;;;;;;4.75;4.15;;;14.80;99.90;;;;;;4961088;28;20105;-66
2021/04/25 08:17:13;;;;;;;4.75;4.35;;;14.70;99.90;;;;;;4952904;28;20531;-67
2021/04/25 08:19:38;;;;;;;6.03;4.25;;;14.70;99.90;;;;;;4965188;28;20174;-67
2021/04/25 08:22:06;;;;;;;5.03;4.25;;;14.80;99.90;;;;;;4957274;28;20501;-67
2021/04/25 08:24:32;;;;;;;4.80;4.40;;;14.80;99.90;;;;;;4969162;28;20050;-67
2021/04/25 08:26:58;;;;;;;7.43;4.20;;;14.80;99.90;;;;;;4969452;28;20066;-67
2021/04/25 08:29:24;;;;;;;6.25;4.40;;;15.00;99.90;;;;;;4975865;28;20035;-67
2021/04/25 08:31:50;;;;;;;8.93;4.70;;;15.00;99.90;;;;;;4981006;28;20019;-67
2021/04/25 08:34:15;;;;;;;4.30;3.95;;;14.80;99.90;;;;;;4973273;28;20054;-67
2021/04/25 08:36:41;;;;;;;4.65;4.30;;;15.00;99.90;;;;;;4974726;28;20530;-68
2021/04/25 08:39:07;;;;;;;5.00;4.60;;;15.00;99.90;;;;;;4975990;28;20041;-68
2021/04/25 08:41:32;;;;;;;4.80;4.40;;;15.00;99.90;;;;;;4973646;28;20027;-68
2021/04/25 08:44:01;;;;;;;4.90;4.40;;;15.00;99.90;;;;;;4971916;28;20049;-69
2021/04/25 08:46:28;;;;;;;5.18;4.40;;;15.10;99.90;;;;;;4976911;28;20035;-69
2021/04/25 08:48:54;;;;;;;4.63;4.20;;;15.30;99.90;;;;;;4963557;28;20629;-71
2021/04/25 08:51:20;;;;;;;4.35;3.95;;;15.30;99.90;;;;;;4950985;28;20023;-71
2021/04/25 08:53:47;;;;;;;4.43;4.03;;;15.30;99.90;;;;;;4962957;28;20033;-71
2021/04/25 08:56:14;;;;;;;4.68;4.15;;;15.30;99.90;;;;;;4951689;28;20425;-71
2021/04/25 08:58:40;;;;;;;5.60;4.00;;;15.30;99.90;;;;;;4962960;28;20034;-71
2021/04/25 09:01:06;;;;;;;5.88;4.40;;;15.40;99.90;;;;;;4966702;28;20011;-72
2021/04/25 09:03:34;;;;;;;5.97;4.30;;;15.40;99.90;;;;;;4983690;28;20122;-71
2021/04/25 09:06:00;;;;;;;4.35;3.95;;;15.40;99.90;;;;;;4966472;28;20015;-71
2021/04/25 09:08:57;;;;;;;4.80;4.32;;;15.30;99.90;;;;;;4974383;28;20045;-71
2021/04/25 09:11:39;;;;;;;5.28;4.78;;;15.30;99.90;;;;;;4977028;28;20150;-70
2021/04/25 09:14:21;;;;;;;4.95;4.40;;;15.20;99.90;;;;;;4960188;28;20035;-70
2021/04/25 09:16:58;;;;;;;5.07;4.00;;;15.30;99.90;;;;;;4960405;28;20031;-68
2021/04/25 09:19:47;;;;;;;4.10;3.80;;;15.40;99.90;;;;;;4958965;28;20035;-68
2021/04/25 09:22:13;;;;;;;6.20;4.22;;;15.40;99.90;;;;;;4955769;28;20102;-68
2021/04/25 09:24:39;;;;;;;4.45;3.80;;;15.40;99.90;;;;;;4971900;28;20054;-68
2021/04/25 09:27:05;;;;;;;6.90;3.67;;;15.40;99.90;;;;;;4950694;28;20023;-69
2021/04/25 09:29:51;;;;;;;4.65;4.07;;;15.40;99.90;;;;;;4959789;28;20031;-71
2021/04/25 09:32:22;;;;;;;4.20;3.83;;;15.20;99.90;;;;;;4950642;28;20023;-70
2021/04/25 09:34:48;;;;;;;6.45;4.25;;;15.30;99.90;;;;;;4963606;28;20090;-70
2021/04/25 09:37:19;;;;;;;6.95;3.92;;;15.40;99.90;;;;;;4952780;28;20034;-69
2021/04/25 09:39:59;;;;;;;5.15;4.28;;;15.30;99.90;;;;;;4962161;28;20031;-71
2021/04/25 09:42:25;;;;;;;7.60;4.15;;;15.30;99.90;;;;;;4959914;28;20034;-69
2021/04/25 09:44:51;;;;;;;5.38;4.07;;;15.20;99.90;;;;;;4964925;28;20187;-70
2021/04/25 09:47:17;;;;;;;4.70;4.30;;;15.40;99.90;;;;;;4954255;28;20031;-72
2021/04/25 09:49:49;;;;;;;4.60;3.67;;;15.40;99.90;;;;;;4970024;28;20050;-70
2021/04/25 09:52:36;;;;;;;4.93;4.40;;;15.50;99.90;;;;;;4964516;28;20023;-71
2021/04/25 09:55:18;;;;;;;6.32;4.32;;;15.30;99.90;;;;;;4969430;28;20093;-70
2021/04/25 09:57:45;;;;;;;4.68;4.30;;;15.20;99.90;;;;;;4957565;28;20043;-69
2021/04/25 10:00:11;;;;;;;5.00;4.00;;;15.40;99.90;;;;;;4969779;28;20023;-69
2021/04/25 10:03:02;;;;;;;5.57;4.18;;;15.20;99.90;;;;;;4968647;28;20383;-68
2021/04/25 10:05:30;;;;;;;5.07;4.25;;;15.30;99.90;;;;;;4980199;28;20089;-73
2021/04/25 10:07:56;;;;;;;4.65;4.25;;;15.30;99.90;;;;;;4977067;28;20051;-67
2021/04/25 10:10:22;;;;;;;6.45;4.20;;;15.30;99.90;;;;;;4984700;28;20035;-72
2021/04/25 10:12:49;;;;;;;6.18;3.95;;;15.30;99.90;;;;;;4974665;28;20534;-70
2021/04/25 10:15:16;;;;;;;5.20;4.72;;;15.30;99.90;;;;;;4980829;28;20519;-73
2021/04/25 10:17:46;;;;;;;4.82;4.30;;;15.30;99.90;;;;;;4973297;28;20029;-69
2021/04/25 10:20:15;;;;;;;7.63;4.78;;;15.40;99.90;;;;;;4966396;28;20054;-73
2021/04/25 10:22:43;;;;;;;6.05;4.30;;;15.30;99.90;;;;;;4960956;28;20047;-74
2021/04/25 10:25:15;;;;;;;5.85;4.95;;;15.40;99.90;;;;;;4975879;28;20101;-74
2021/04/25 10:27:57;;;;;;;6.00;4.32;;;15.40;99.90;;;;;;4963278;28;20067;-73
2021/04/25 10:30:28;;;;;;;5.28;4.82;;;15.50;99.90;;;;;;4971923;28;20023;-73
2021/04/25 10:32:57;;;;;;;5.97;4.30;;;15.30;99.90;;;;;;4971957;28;20424;-72
2021/04/25 10:35:25;;;;;;;6.60;4.75;;;15.40;99.90;;;;;;4954938;28;20027;-74
2021/04/25 10:37:51;;;;;;;5.60;5.05;;;15.40;99.90;;;;;;4956042;28;20512;-73
2021/04/25 10:40:22;;;;;;;5.03;4.20;;;15.30;99.90;;;;;;4959251;28;20035;-72
2021/04/25 10:43:20;;;;;;;4.43;4.13;;;15.30;99.90;;;;;;4953974;28;20486;-74
2021/04/25 10:45:59;;;;;;;4.63;4.13;;;15.30;99.90;;;;;;4950744;28;20130;-73
2021/04/25 10:48:29;;;;;;;6.70;4.38;;;15.40;99.90;;;;;;4959177;28;20510;-74
2021/04/25 10:51:15;;;;;;;6.40;4.40;;;15.40;99.90;;;;;;4966600;28;20030;-73
2021/04/25 10:53:44;;;;;;;4.32;3.95;;;15.50;99.90;;;;;;4971968;28;20031;-72
2021/04/25 10:56:21;;;;;;;5.43;4.28;;;15.40;99.90;;;;;;4973488;28;20031;-72
2021/04/25 10:59:08;;;;;;;5.82;5.32;;;15.40;99.90;;;;;;4963761;28;20023;-72
2021/04/25 11:01:40;;;;;;;;;;;15.50;99.90;;;;;;4978008;28;20046;-72
2021/04/25 11:04:08;;;;;;;4.85;4.43;;;15.40;99.90;;;;;;4969898;28;19940;-72
2021/04/25 11:06:34;;;;;;;4.78;4.38;;;15.40;99.90;;;;;;4981828;28;20531;-72
2021/04/25 11:09:01;;;;;;;7.03;5.03;;;15.30;99.90;;;;;;4977194;28;20060;-72
2021/04/25 11:11:36;;;;;;;5.68;4.35;;;15.50;99.90;;;;;;4975298;28;20027;-72
2021/04/25 11:14:03;;;;;;;5.03;4.07;;;15.40;99.90;;;;;;4974068;28;20097;-72
2021/04/25 11:16:30;;;;;;;4.40;3.95;;;15.50;99.90;;;;;;4977238;28;20651;-72
2021/04/25 11:19:14;;;;;;;4.53;4.13;;;15.40;99.90;;;;;;4975299;28;20039;-72
2021/04/25 11:21:48;;;;;;;4.43;4.03;;;15.50;99.90;;;;;;4925789;28;1552330;-72
2021/04/25 11:24:17;;;;;;;5.05;4.03;;;15.60;99.90;;;;;;4975031;28;20039;-71
2021/04/25 11:26:47;;;;;;;4.80;4.32;;;15.50;99.90;;;;;;4966893;28;20035;-73
2021/04/25 11:29:13;;;;;;;6.80;4.72;;;15.70;99.90;;;;;;4973292;28;20030;-72
2021/04/25 11:31:48;;;;;;;5.40;4.30;;;15.70;99.90;;;;;;4973881;28;20162;-73
2021/04/25 11:34:34;;;;;;;4.20;3.90;;;15.70;99.90;;;;;;4967751;28;20060;-72
2021/04/25 11:37:08;;;;;;;4.72;4.30;;;15.60;99.90;;;;;;4958272;28;20027;-73
2021/04/25 11:39:38;;;;;;;5.05;4.15;;;15.60;99.90;;;;;;4977112;28;20061;-73
2021/04/25 11:42:05;;;;;;;6.13;4.18;;;15.60;99.90;;;;;;4972545;28;20492;-73
2021/04/25 11:44:33;;;;;;;5.85;3.83;;;15.60;99.90;;;;;;4979688;28;20042;-72
2021/04/25 11:47:04;;;;;;;7.20;3.70;;;15.50;99.90;;;;;;4982501;28;20026;-73
2021/04/25 11:49:34;;;;;;;5.65;4.38;;;15.60;99.90;;;;;;4979967;28;20038;-73
2021/04/25 11:52:10;;;;;;;4.97;4.47;;;15.60;99.90;;;;;;4982270;28;20033;-73
2021/04/25 11:54:37;;;;;;;9.77;4.68;;;15.60;99.90;;;;;;4981370;28;20605;-72
2021/04/25 11:57:07;;;;;;;5.25;4.47;;;15.40;99.90;;;;;;4984015;28;20054;-73
2021/04/25 11:59:33;;;;;;;5.35;4.60;;;15.50;99.90;;;;;;4977026;28;20073;-72
2021/04/25 12:02:09;;;;;;;7.03;4.25;;;15.50;99.90;;;;;;4985155;28;20058;-73
2021/04/25 12:04:44;;;;;;;;;;;15.70;99.90;;;;;;4975446;28;20042;-73
2021/04/25 12:07:10;;;;;;;4.95;4.43;;;15.60;99.90;;;;;;4962471;28;19960;-73
2021/04/25 12:09:37;;;;;;;5.07;4.68;;;15.80;99.90;;;;;;4976798;28;20081;-72
2021/04/25 12:12:05;;;;;;;4.70;4.30;;;15.90;99.90;;;;;;4978662;28;20023;-72
2021/04/25 12:14:31;;;;;;;4.55;3.88;;;15.90;99.90;;;;;;4976378;28;20031;-72
2021/04/25 12:17:15;;;;;;;6.95;3.75;;;15.80;99.90;;;;;;4979007;28;20479;-73
2021/04/25 12:19:40;;;;;;;4.75;3.80;;;15.80;99.90;;;;;;4976063;28;20037;-72
2021/04/25 12:22:06;;;;;;;7.57;4.07;;;16.00;99.90;;;;;;4961521;28;20498;-72
2021/04/25 12:24:32;;;;;;;4.88;3.78;;;16.10;99.90;;;;;;4969999;28;20058;-72
2021/04/25 12:26:58;;;;;;;5.75;3.97;;;16.30;99.90;;;;;;4965881;28;20026;-72
2021/04/25 12:29:38;;;;;;;4.15;3.75;;;16.20;99.90;;;;;;4974436;28;20423;-72
2021/04/25 12:32:04;;;;;;;5.10;3.58;;;16.50;99.90;;;;;;4967204;28;20043;-72
2021/04/25 12:34:31;;;;;;;5.25;3.60;;;16.50;99.90;;;;;;4975527;28;20058;-73
2021/04/25 12:36:59;;;;;;;4.35;3.67;;;16.60;99.90;;;;;;4973278;28;20019;-72
2021/04/25 12:39:39;;;;;;;4.35;3.45;;;16.90;99.90;;;;;;4975525;28;20568;-73
2021/04/25 12:42:05;;;;;;;2.85;2.58;;;16.70;99.90;;;;;;4982805;28;20482;-72
2021/04/25 12:44:36;;;;;;;3.38;3.08;;;16.80;99.90;;;;;;4974879;28;20113;-72
2021/04/25 12:47:03;;;;;;;3.28;3.05;;;16.80;99.90;;;;;;4979796;28;20026;-72
2021/04/25 12:49:40;;;;;;;4.07;3.60;;;16.90;99.90;;;;;;4976953;28;20093;-72